Time;durP1;ratioP1;P1;durP2;ratioP2;P2;SDS_P1;SDS_P2;PMS_P1;PMS_P2;Temp;Humidity;BMP_temperature;BMP_pressure;BME280_temperature;BME280_humidity;BME280_pressure;Samples;Min_cycle;Max_cycle;Signal;HPM_P1;HPM_P2
2022/04/05 00:01:20;;;;;;;7.00;5.77;;;;;;;5.71;79.89;97651.69;5074602;28;20245;-68
2022/04/05 00:03:46;;;;;;;7.30;5.90;;;;;;;5.73;79.79;97647.22;5075026;28;20305;-68
2022/04/05 00:06:13;;;;;;;7.87;6.37;;;;;;;5.61;79.78;97643.50;5074617;28;20233;-68
2022/04/05 00:08:39;;;;;;;9.00;6.13;;;;;;;5.67;80.58;97651.00;5074802;28;20588;-68
2022/04/05 00:11:06;;;;;;;8.07;6.23;;;;;;;5.69;78.62;97649.13;5074627;28;20217;-67
2022/04/05 00:13:32;;;;;;;6.90;6.20;;;;;;;5.74;78.83;97648.91;5073167;28;20207;-67
2022/04/05 00:15:59;;;;;;;7.00;6.10;;;;;;;5.70;79.90;97635.13;5074346;28;20218;-69
2022/04/05 00:18:27;;;;;;;7.63;6.03;;;;;;;5.68;79.71;97634.34;5074616;28;20221;-69
2022/04/05 00:20:53;;;;;;;6.30;5.70;;;;;;;5.70;78.46;97635.13;5074569;28;20216;-67
2022/04/05 00:23:20;;;;;;;7.17;6.13;;;;;;;5.70;79.67;97624.63;5074697;28;20226;-66
2022/04/05 00:25:46;;;;;;;7.50;6.43;;;;;;;5.79;79.29;97624.09;5072428;28;20248;-66
2022/04/05 00:28:13;;;;;;;6.70;5.63;;;;;;;5.79;78.62;97631.09;5074549;28;20213;-67
2022/04/05 00:30:40;;;;;;;6.87;6.00;;;;;;;5.77;79.31;97628.59;5074233;28;20737;-67
2022/04/05 00:33:06;;;;;;;7.77;6.33;;;;;;;5.71;79.37;97623.69;5074188;28;20226;-67
2022/04/05 00:35:34;;;;;;;8.43;6.23;;;;;;;5.74;80.02;97625.31;5074339;28;20215;-67
2022/04/05 00:38:01;;;;;;;6.80;6.10;;;;;;;5.74;80.31;97630.53;5074456;28;20214;-67
2022/04/05 00:40:28;;;;;;;6.93;5.87;;;;;;;5.66;79.90;97622.25;5072712;28;20222;-66
2022/04/05 00:42:55;;;;;;;6.87;6.17;;;;;;;5.70;80.20;97621.16;5074086;28;20308;-66
2022/04/05 00:45:21;;;;;;;7.50;6.30;;;;;;;5.66;80.83;97617.88;5073887;28;20281;-65
2022/04/05 00:47:50;;;;;;;7.20;5.80;;;;;;;5.70;80.10;97616.78;5074264;28;20228;-66
2022/04/05 00:50:19;;;;;;;8.33;6.00;;;;;;;5.73;80.74;97624.44;5074152;28;20218;-66
2022/04/05 00:52:47;;;;;;;7.13;6.10;;;;;;;5.75;81.04;97617.31;5073987;28;20240;-66
2022/04/05 00:55:15;;;;;;;7.60;6.27;;;;;;;5.76;81.54;97608.56;5073603;28;20684;-66
2022/04/05 00:57:43;;;;;;;9.10;6.33;;;;;;;5.78;80.98;97608.44;5074018;28;20214;-65
2022/04/05 01:00:10;;;;;;;8.07;5.83;;;;;;;5.82;81.82;97602.97;5069309;28;20222;-67
2022/04/05 01:02:38;;;;;;;6.70;5.67;;;;;;;5.87;81.33;97600.09;5066444;28;20216;-66
2022/04/05 01:05:07;;;;;;;8.20;5.83;;;;;;;5.82;81.30;97592.50;5069249;28;20237;-65
2022/04/05 01:07:35;;;;;;;7.37;5.57;;;;;;;5.78;81.96;97592.72;5067823;28;20223;-65
2022/04/05 01:10:06;;;;;;;8.40;6.27;;;;;;;5.76;80.85;97591.97;5069846;28;20214;-67
2022/04/05 01:12:33;;;;;;;7.87;6.17;;;;;;;5.83;80.34;97588.94;5070430;28;20245;-67
2022/04/05 01:15:00;;;;;;;6.87;5.53;;;;;;;5.82;80.44;97587.25;5073773;28;20218;-67
2022/04/05 01:17:27;;;;;;;6.17;5.27;;;;;;;5.83;79.60;97583.69;5073520;28;20222;-67
2022/04/05 01:19:53;;;;;;;7.40;6.23;;;;;;;5.85;80.33;97597.53;5073323;28;20588;-67
2022/04/05 01:22:20;;;;;;;7.33;5.70;;;;;;;5.77;81.90;97599.75;5073160;28;20682;-66
2022/04/05 01:24:48;;;;;;;7.03;5.93;;;;;;;5.55;84.19;97599.28;5073447;28;20214;-66
2022/04/05 01:27:18;;;;;;;7.83;6.33;;;;;;;5.42;87.22;97592.22;5073171;28;20225;-67
2022/04/05 01:29:45;;;;;;;8.17;6.50;;;;;;;5.29;86.17;97586.84;5073438;28;20211;-67
2022/04/05 01:32:11;;;;;;;8.50;6.17;;;;;;;5.32;86.54;97586.66;5071283;28;20222;-65
2022/04/05 01:34:39;;;;;;;6.87;5.87;;;;;;;5.30;87.16;97582.44;5073457;28;20584;-66
2022/04/05 01:37:08;;;;;;;8.73;6.23;;;;;;;5.24;89.23;97577.53;5073256;28;20241;-66
2022/04/05 01:39:36;;;;;;;8.70;6.30;;;;;;;5.31;89.45;97569.25;5073249;28;20211;-66
2022/04/05 01:42:06;;;;;;;7.07;5.83;;;;;;;5.29;91.01;97579.00;5072921;28;20209;-66
2022/04/05 01:44:35;;;;;;;7.50;6.27;;;;;;;5.25;90.91;97574.03;5073138;28;20220;-66
2022/04/05 01:47:06;;;;;;;6.63;5.57;;;;;;;5.20;91.79;97566.41;5073067;28;20242;-65
2022/04/05 01:49:32;;;;;;;6.97;6.10;;;;;;;5.20;93.49;97561.16;5072904;28;20219;-64
2022/04/05 01:51:59;;;;;;;8.13;6.50;;;;;;;5.21;94.97;97562.00;5073040;28;20217;-66
2022/04/05 01:54:25;;;;;;;7.40;6.60;;;;;;;5.18;94.80;97557.78;5073239;28;20213;-65
2022/04/05 01:56:53;;;;;;;9.77;6.93;;;;;;;5.12;95.86;97555.53;5073268;28;20218;-66
2022/04/05 01:59:23;;;;;;;7.57;6.47;;;;;;;5.14;95.67;97566.75;5071427;28;20209;-66
2022/04/05 02:01:50;;;;;;;7.30;6.17;;;;;;;5.12;96.50;97571.22;5073076;28;20239;-66
2022/04/05 02:04:17;;;;;;;9.20;6.90;;;;;;;5.06;98.38;97563.72;5073049;28;20213;-66
2022/04/05 02:06:45;;;;;;;7.90;6.30;;;;;;;5.05;99.53;97562.03;5072936;28;20261;-66
2022/04/05 02:09:14;;;;;;;8.37;6.50;;;;;;;5.03;99.22;97558.66;5072832;28;20225;-66
2022/04/05 02:11:41;;;;;;;8.90;6.70;;;;;;;5.03;99.96;97557.81;5072787;28;20221;-66
2022/04/05 02:14:08;;;;;;;7.40;6.00;;;;;;;4.96;100.00;97556.47;5072553;28;20217;-66
2022/04/05 02:16:36;;;;;;;8.33;7.10;;;;;;;4.91;100.00;97542.78;5072949;28;20211;-66
2022/04/05 02:19:02;;;;;;;7.73;6.60;;;;;;;4.88;100.00;97549.03;5072629;28;20217;-66
2022/04/05 02:21:29;;;;;;;7.67;6.63;;;;;;;4.90;100.00;97544.56;5071920;28;20205;-66
2022/04/05 02:23:55;;;;;;;8.57;6.67;;;;;;;4.89;100.00;97545.50;5071888;28;20214;-66
2022/04/05 02:26:22;;;;;;;8.00;7.20;;;;;;;4.95;100.00;97550.38;5072076;28;20249;-65
2022/04/05 02:28:49;;;;;;;7.57;6.77;;;;;;;4.88;100.00;97549.03;5072581;28;20684;-65
2022/04/05 02:31:16;;;;;;;8.17;6.40;;;;;;;4.90;100.00;97544.56;5072380;28;20226;-65
2022/04/05 02:33:44;;;;;;;8.60;7.30;;;;;;;4.83;100.00;97540.59;5072752;28;20236;-65
2022/04/05 02:36:11;;;;;;;8.20;6.40;;;;;;;4.86;100.00;97540.44;5072790;28;20240;-66
2022/04/05 02:38:37;;;;;;;9.27;6.90;;;;;;;4.77;100.00;97532.25;5072573;28;20225;-66
2022/04/05 02:41:05;;;;;;;10.47;7.40;;;;;;;4.82;100.00;97544.16;5072626;28;20218;-66
2022/04/05 02:43:31;;;;;;;9.13;6.40;;;;;;;4.75;100.00;97545.41;5073679;28;20217;-66
2022/04/05 02:45:58;;;;;;;9.10;6.77;;;;;;;4.74;100.00;97548.97;5076367;28;20235;-66
2022/04/05 02:48:25;;;;;;;7.53;6.73;;;;;;;4.79;100.00;97553.94;5076430;28;20238;-67
2022/04/05 02:50:53;;;;;;;9.30;7.30;;;;;;;4.82;100.00;97552.00;5074391;28;20770;-65
2022/04/05 02:53:20;;;;;;;8.90;7.07;;;;;;;4.76;100.00;97548.91;5076311;28;20555;-67
2022/04/05 02:55:47;;;;;;;8.50;7.20;;;;;;;4.77;100.00;97550.59;5076384;28;20207;-67
2022/04/05 02:58:13;;;;;;;9.50;7.20;;;;;;;4.81;100.00;97557.31;5076445;28;20220;-66
2022/04/05 03:00:40;;;;;;;8.63;7.20;;;;;;;4.75;100.00;97553.28;5076367;28;20251;-68
2022/04/05 03:03:06;;;;;;;7.90;7.00;;;;;;;4.72;100.00;97553.47;5076224;28;20246;-65
2022/04/05 03:05:33;;;;;;;9.83;7.33;;;;;;;4.74;100.00;97554.22;5075943;28;20244;-65
2022/04/05 03:08:03;;;;;;;9.90;7.73;;;;;;;4.66;100.00;97555.56;5075593;28;20225;-66
2022/04/05 03:10:32;;;;;;;8.70;7.17;;;;;;;4.61;100.00;97555.81;5075659;28;20564;-66
2022/04/05 03:12:59;;;;;;;9.33;7.30;;;;;;;4.67;100.00;97555.47;5075765;28;20223;-66
2022/04/05 03:15:26;;;;;;;9.93;7.23;;;;;;;4.67;100.00;97560.72;5075763;28;20308;-66
2022/04/05 03:17:55;;;;;;;8.73;7.43;;;;;;;4.66;100.00;97564.25;5073878;28;20223;-66
2022/04/05 03:20:22;;;;;;;9.60;7.80;;;;;;;4.66;100.00;97559.03;5075302;28;20230;-66
2022/04/05 03:22:48;;;;;;;8.93;7.47;;;;;;;4.71;100.00;97562.22;5075402;28;20217;-67
2022/04/05 03:25:17;;;;;;;8.63;7.40;;;;;;;4.73;100.00;97564.75;5075659;28;20213;-66
2022/04/05 03:27:44;;;;;;;8.77;7.23;;;;;;;4.71;100.00;97561.38;5075389;28;20215;-65
2022/04/05 03:30:13;;;;;;;10.27;7.53;;;;;;;4.67;100.00;97570.31;5075221;28;20676;-66
2022/04/05 03:32:39;;;;;;;9.73;7.77;;;;;;;4.67;100.00;97563.34;5075363;28;20239;-66
2022/04/05 03:35:07;;;;;;;10.13;7.63;;;;;;;4.65;100.00;97566.97;5075573;28;20219;-66
2022/04/05 03:37:34;;;;;;;10.27;7.67;;;;;;;4.65;100.00;97566.97;5075236;28;20214;-64
2022/04/05 03:40:01;;;;;;;11.07;7.90;;;;;;;4.64;100.00;97560.88;5075440;28;20222;-64
2022/04/05 03:42:29;;;;;;;9.00;7.70;;;;;;;4.63;100.00;97569.66;5074806;28;20221;-64
2022/04/05 03:44:55;;;;;;;8.87;7.20;;;;;;;4.62;100.00;97562.72;5074628;28;20212;-63
2022/04/05 03:47:23;;;;;;;10.97;8.03;;;;;;;4.62;100.00;97557.50;5075343;28;20245;-63
2022/04/05 03:49:49;;;;;;;11.10;7.87;;;;;;;4.64;100.00;97558.25;5075149;28;20218;-63
2022/04/05 03:52:16;;;;;;;10.33;8.30;;;;;;;4.60;100.00;97558.50;5073288;28;20212;-63
2022/04/05 03:54:42;;;;;;;8.60;7.30;;;;;;;4.61;100.00;97547.97;5074924;28;20219;-64
2022/04/05 03:57:09;;;;;;;9.83;7.97;;;;;;;4.67;100.00;97559.84;5074939;28;20688;-63
2022/04/05 03:59:36;;;;;;;10.77;7.80;;;;;;;4.67;100.00;97545.00;5075164;28;20228;-63
2022/04/05 04:02:03;;;;;;;10.17;7.93;;;;;;;4.73;100.00;97551.66;5075119;28;20238;-63
2022/04/05 04:04:30;;;;;;;10.23;8.13;;;;;;;4.67;100.00;97550.25;5074760;28;20217;-63
2022/04/05 04:06:57;;;;;;;12.47;8.70;;;;;;;4.61;100.00;97552.34;5074886;28;20234;-64
2022/04/05 04:09:24;;;;;;;11.47;8.23;;;;;;;4.63;100.00;97550.47;5073211;28;20220;-64
2022/04/05 04:11:50;;;;;;;11.00;8.43;;;;;;;4.65;100.00;97548.63;5074430;28;20675;-65
2022/04/05 04:14:16;;;;;;;13.90;8.60;;;;;;;4.61;100.00;97545.34;5074629;28;20678;-65
2022/04/05 04:16:44;;;;;;;10.53;8.70;;;;;;;4.59;100.00;97538.50;5074792;28;20224;-65
2022/04/05 04:19:11;;;;;;;10.03;8.20;;;;;;;4.60;100.00;97532.34;5074434;28;20223;-65
2022/04/05 04:21:37;;;;;;;12.23;8.53;;;;;;;4.59;100.00;97531.47;5074468;28;20209;-65
2022/04/05 04:24:04;;;;;;;9.53;8.17;;;;;;;4.59;100.00;97535.88;5061238;28;20210;-63
2022/04/05 04:26:31;;;;;;;14.40;9.27;;;;;;;4.60;100.00;97525.34;5074635;28;20326;-63
2022/04/05 04:29:02;;;;;;;10.13;8.63;;;;;;;4.57;100.00;97532.50;5074260;28;20217;-63
2022/04/05 04:31:28;;;;;;;12.40;9.33;;;;;;;4.58;100.00;97527.19;5074439;28;20277;-63
2022/04/05 04:33:56;;;;;;;10.27;7.77;;;;;;;4.60;100.00;97527.97;5060767;28;20721;-63
2022/04/05 04:36:23;;;;;;;11.47;8.50;;;;;;;4.57;100.00;97517.66;5072599;28;20238;-64
2022/04/05 04:38:50;;;;;;;12.30;8.90;;;;;;;4.58;100.00;97528.97;5074242;28;20674;-64
2022/04/05 04:41:16;;;;;;;11.47;8.80;;;;;;;4.58;100.00;97529.78;5074266;28;20211;-64
2022/04/05 04:43:43;;;;;;;12.13;8.97;;;;;;;4.60;100.00;97543.66;5073917;28;20223;-65
2022/04/05 04:46:10;;;;;;;9.77;8.37;;;;;;;4.54;100.00;97557.09;5074050;28;20240;-65
2022/04/05 04:48:37;;;;;;;12.10;9.00;;;;;;;4.50;100.00;97552.94;5074044;28;20591;-64
2022/04/05 04:51:04;;;;;;;11.10;8.77;;;;;;;4.47;100.00;97542.63;5074122;28;20211;-64
2022/04/05 04:53:31;;;;;;;10.17;8.50;;;;;;;4.48;100.00;97533.88;5073533;28;20703;-63
2022/04/05 04:55:57;;;;;;;11.70;8.70;;;;;;;4.47;100.00;97534.78;5073828;28;20209;-65
2022/04/05 04:58:24;;;;;;;11.13;9.30;;;;;;;4.43;100.00;97545.50;5073670;28;20697;-63
2022/04/05 05:00:50;;;;;;;11.43;9.00;;;;;;;4.44;100.00;97542.81;5072981;28;20734;-65
2022/04/05 05:03:18;;;;;;;14.53;9.47;;;;;;;4.48;100.00;97549.56;5072712;28;20219;-63
2022/04/05 05:05:44;;;;;;;12.90;8.87;;;;;;;4.53;100.00;97538.84;5073072;28;20214;-64
2022/04/05 05:08:12;;;;;;;10.37;8.47;;;;;;;4.51;100.00;97549.38;5073845;28;20583;-63
2022/04/05 05:10:39;;;;;;;11.60;8.93;;;;;;;4.48;100.00;97557.41;5073752;28;20220;-63
2022/04/05 05:13:05;;;;;;;11.83;8.07;;;;;;;4.50;100.00;97557.31;5073576;28;20220;-63
2022/04/05 05:15:32;;;;;;;10.83;8.77;;;;;;;4.48;100.00;97552.19;5073596;28;20238;-63
2022/04/05 05:17:58;;;;;;;11.53;8.87;;;;;;;4.51;100.00;97552.00;5073648;28;20214;-64
2022/04/05 05:20:25;;;;;;;12.37;8.47;;;;;;;4.55;100.00;97556.16;5073201;28;20213;-64
2022/04/05 05:22:51;;;;;;;12.67;9.80;;;;;;;4.54;100.00;97559.69;5073295;28;20207;-62
2022/04/05 05:25:19;;;;;;;10.67;8.73;;;;;;;4.56;100.00;97565.69;5073515;28;20220;-62
2022/04/05 05:27:45;;;;;;;11.83;8.80;;;;;;;4.55;100.00;97561.38;5071648;28;20254;-63
2022/04/05 05:30:12;;;;;;;12.23;9.47;;;;;;;4.54;100.00;97561.47;5073374;28;20219;-62
2022/04/05 05:32:43;;;;;;;10.93;8.73;;;;;;;4.56;100.00;97567.44;5073281;28;20216;-63
2022/04/05 05:35:10;;;;;;;11.53;8.73;;;;;;;4.59;100.00;97567.28;5073412;28;20618;-62
2022/04/05 05:37:37;;;;;;;11.00;8.97;;;;;;;4.63;100.00;97567.03;5073310;28;20256;-63
2022/04/05 05:40:04;;;;;;;10.73;8.43;;;;;;;4.64;100.00;97568.72;5073172;28;20217;-63
2022/04/05 05:42:32;;;;;;;12.80;8.97;;;;;;;4.63;100.00;97563.56;5072840;28;20709;-63
2022/04/05 05:44:58;;;;;;;12.33;8.93;;;;;;;4.63;100.00;97569.66;5073194;28;20215;-64
2022/04/05 05:47:25;;;;;;;11.60;9.20;;;;;;;4.63;100.00;97574.88;5072845;28;20241;-63
2022/04/05 05:49:51;;;;;;;11.30;8.27;;;;;;;4.65;100.00;97566.97;5072901;28;20211;-63
2022/04/05 05:52:18;;;;;;;10.93;8.70;;;;;;;4.66;100.00;97579.97;5072855;28;20212;-63
2022/04/05 05:54:44;;;;;;;12.30;9.57;;;;;;;4.68;100.00;97580.72;5071174;28;20224;-64
2022/04/05 05:57:11;;;;;;;12.60;9.80;;;;;;;4.69;100.00;97574.56;5072719;28;20209;-64
2022/04/05 05:59:38;;;;;;;12.43;9.70;;;;;;;4.71;100.00;97572.69;5072926;28;20212;-63
2022/04/05 06:02:05;;;;;;;13.57;9.77;;;;;;;4.72;100.00;97568.31;5070638;28;20245;-63
2022/04/05 06:04:31;;;;;;;12.57;9.57;;;;;;;4.73;100.00;97572.59;5073005;28;20221;-63
2022/04/05 06:06:58;;;;;;;11.10;9.37;;;;;;;4.72;100.00;97574.41;5064671;28;20244;-64
2022/04/05 06:09:24;;;;;;;11.27;9.30;;;;;;;4.73;100.00;97575.22;5068889;28;20227;-63
2022/04/05 06:11:51;;;;;;;13.53;9.97;;;;;;;4.73;100.00;97580.47;5072945;28;20217;-63
2022/04/05 06:14:17;;;;;;;11.03;9.03;;;;;;;4.64;100.00;97579.19;5072940;28;20266;-63
2022/04/05 06:16:45;;;;;;;13.20;9.70;;;;;;;4.62;100.00;97578.44;5073017;28;20207;-63
2022/04/05 06:19:11;;;;;;;12.27;9.50;;;;;;;4.60;100.00;97580.31;5076825;28;20217;-64
2022/04/05 06:21:38;;;;;;;10.77;8.67;;;;;;;4.66;100.00;97581.72;5075156;28;20212;-63
2022/04/05 06:24:05;;;;;;;12.33;9.33;;;;;;;4.70;100.00;97580.66;5076994;28;20579;-64
2022/04/05 06:26:32;;;;;;;11.90;9.67;;;;;;;4.68;100.00;97578.09;5076899;28;20233;-65
2022/04/05 06:28:58;;;;;;;11.67;9.17;;;;;;;4.75;100.00;97583.81;5076906;28;20222;-64
2022/04/05 06:31:25;;;;;;;11.70;9.00;;;;;;;4.78;100.00;97584.53;5076452;28;20212;-63
2022/04/05 06:33:53;;;;;;;10.77;8.67;;;;;;;4.75;100.00;97584.69;5063011;28;20216;-64
2022/04/05 06:36:19;;;;;;;10.67;8.17;;;;;;;4.82;100.00;97579.97;5076351;28;20221;-65
2022/04/05 06:38:45;;;;;;;13.53;9.67;;;;;;;4.86;100.00;97579.72;5076338;28;20222;-65
2022/04/05 06:41:12;;;;;;;12.30;9.00;;;;;;;4.87;100.00;97584.00;5075560;28;20675;-65
2022/04/05 06:43:38;;;;;;;13.17;8.67;;;;;;;4.90;100.00;97575.97;5075360;28;20225;-65
2022/04/05 06:46:05;;;;;;;10.07;8.30;;;;;;;4.92;100.00;97582.00;5074663;28;20209;-64
2022/04/05 06:48:32;;;;;;;10.67;8.57;;;;;;;4.93;100.00;97588.91;5076397;28;20244;-66
2022/04/05 06:50:59;;;;;;;11.93;8.90;;;;;;;4.94;100.00;97582.72;5073081;28;20210;-65
2022/04/05 06:53:26;;;;;;;11.83;9.33;;;;;;;5.02;100.00;97580.53;5075514;28;20216;-67
2022/04/05 06:55:53;;;;;;;11.97;9.40;;;;;;;4.94;100.00;97579.28;5074910;28;20219;-65
2022/04/05 06:58:19;;;;;;;13.10;8.27;;;;;;;4.96;100.00;97574.81;5074280;28;20686;-66
2022/04/05 07:00:46;;;;;;;10.93;9.20;;;;;;;4.96;100.00;97580.88;5068491;28;20602;-65
2022/04/05 07:03:12;;;;;;;10.90;8.70;;;;;;;5.01;100.00;97575.41;5062381;28;20216;-65
2022/04/05 07:05:39;;;;;;;11.53;9.23;;;;;;;5.00;100.00;97579.78;5074342;28;20213;-66
2022/04/05 07:08:10;;;;;;;10.97;8.17;;;;;;;5.00;100.00;97577.16;5074924;28;20246;-66
2022/04/05 07:10:37;;;;;;;13.93;9.23;;;;;;;5.02;100.00;97577.91;5074471;28;20221;-66
2022/04/05 07:13:04;;;;;;;12.27;8.67;;;;;;;5.07;100.00;97575.88;5070527;28;20211;-66
2022/04/05 07:15:30;;;;;;;11.37;8.60;;;;;;;5.07;100.00;97575.88;5073323;28;20232;-65
2022/04/05 07:17:57;;;;;;;11.00;8.20;;;;;;;5.12;100.00;97573.84;5075273;28;20221;-66
2022/04/05 07:20:24;;;;;;;9.97;8.23;;;;;;;5.14;100.00;97581.63;5074455;28;20237;-66
2022/04/05 07:22:50;;;;;;;12.87;9.07;;;;;;;5.12;100.00;97584.31;5074090;28;20219;-66
2022/04/05 07:25:20;;;;;;;11.20;8.80;;;;;;;5.17;100.00;97582.31;5074586;28;20702;-66
2022/04/05 07:27:47;;;;;;;11.50;8.90;;;;;;;5.21;100.00;97581.22;5074647;28;20241;-65
2022/04/05 07:30:13;;;;;;;10.27;8.50;;;;;;;5.29;100.00;97576.38;5073087;28;20676;-65
2022/04/05 07:32:42;;;;;;;9.47;8.10;;;;;;;5.35;100.00;97586.50;5074568;28;20229;-65
2022/04/05 07:35:10;;;;;;;9.70;8.03;;;;;;;5.34;100.00;97583.97;5074178;28;20221;-66
2022/04/05 07:37:37;;;;;;;9.43;8.13;;;;;;;5.38;100.00;97586.31;5073914;28;20222;-66
2022/04/05 07:40:05;;;;;;;11.00;8.53;;;;;;;5.43;100.00;97586.06;5072717;28;20220;-66
2022/04/05 07:42:33;;;;;;;9.57;7.43;;;;;;;5.51;100.00;97584.66;5074274;28;20270;-66
2022/04/05 07:45:00;;;;;;;10.73;8.40;;;;;;;5.57;100.00;97576.44;5073650;28;20238;-67
2022/04/05 07:47:26;;;;;;;10.40;8.17;;;;;;;5.65;100.00;97578.63;5074534;28;20240;-67
2022/04/05 07:49:53;;;;;;;9.80;7.87;;;;;;;5.70;100.00;97576.59;5074297;28;20619;-68
2022/04/05 07:52:19;;;;;;;9.90;8.50;;;;;;;5.77;100.00;97573.53;5073410;28;20569;-69
2022/04/05 07:54:46;;;;;;;9.70;8.10;;;;;;;5.88;100.00;97567.69;5074422;28;20241;-67
2022/04/05 07:57:13;;;;;;;9.33;7.57;;;;;;;5.92;100.00;97569.19;5074519;28;20223;-66
2022/04/05 07:59:41;;;;;;;9.67;7.77;;;;;;;5.94;100.00;97576.03;5073689;28;20224;-67
2022/04/05 08:02:09;;;;;;;11.27;7.93;;;;;;;5.92;100.00;97582.31;5066213;28;20270;-66
2022/04/05 08:04:35;;;;;;;10.00;8.13;;;;;;;5.93;100.00;97571.69;5065023;28;20232;-65
2022/04/05 08:07:02;;;;;;;11.77;8.93;;;;;;;6.00;100.00;97580.91;5071582;28;20236;-66
2022/04/05 08:09:28;;;;;;;9.00;7.47;;;;;;;6.08;100.00;97581.28;5074120;28;20624;-66
2022/04/05 08:11:55;;;;;;;8.33;7.40;;;;;;;6.13;100.00;97573.13;5073519;28;20222;-67
2022/04/05 08:14:23;;;;;;;9.40;7.27;;;;;;;6.16;100.00;97584.28;5073244;28;20216;-65
2022/04/05 08:16:51;;;;;;;11.43;8.20;;;;;;;6.18;100.00;97585.03;5074255;28;20222;-65
2022/04/05 08:19:17;;;;;;;9.07;7.60;;;;;;;6.25;100.00;97578.50;5074628;28;20214;-65
2022/04/05 08:21:44;;;;;;;11.77;8.60;;;;;;;6.38;100.00;97586.44;5074695;28;20550;-65
2022/04/05 08:24:10;;;;;;;10.97;7.63;;;;;;;6.38;100.00;97592.56;5074392;28;20210;-67
2022/04/05 08:26:37;;;;;;;9.83;7.60;;;;;;;6.42;100.00;97594.03;5074472;28;20241;-66
2022/04/05 08:29:03;;;;;;;8.47;7.43;;;;;;;6.45;100.00;97601.75;5074667;28;20256;-66
2022/04/05 08:31:30;;;;;;;10.03;7.50;;;;;;;6.38;100.00;97603.06;5072431;28;20217;-65
2022/04/05 08:33:57;;;;;;;10.23;7.43;;;;;;;6.39;100.00;97602.13;5074387;28;20585;-64
2022/04/05 08:36:24;;;;;;;8.80;6.87;;;;;;;6.44;100.00;97602.69;5074418;28;20245;-65
2022/04/05 08:38:50;;;;;;;8.63;7.00;;;;;;;6.52;100.00;97600.41;5074322;28;20582;-65
2022/04/05 08:41:21;;;;;;;10.17;7.80;;;;;;;6.57;100.00;97608.88;5073228;28;20237;-66
2022/04/05 08:43:49;;;;;;;10.03;7.53;;;;;;;6.67;100.00;97610.00;5074193;28;20216;-66
2022/04/05 08:46:16;;;;;;;7.20;6.50;;;;;;;6.73;100.00;97606.97;5073796;28;20219;-66
2022/04/05 08:48:44;;;;;;;9.13;7.30;;;;;;;6.82;100.00;97603.78;5073740;28;20719;-65
2022/04/05 08:51:12;;;;;;;9.03;6.73;;;;;;;6.90;100.00;97601.50;5074124;28;20215;-65
2022/04/05 08:53:39;;;;;;;10.50;6.83;;;;;;;6.96;100.00;97595.03;5073675;28;20228;-67
2022/04/05 08:56:06;;;;;;;8.13;6.73;;;;;;;7.02;100.00;97600.72;5073735;28;20718;-65
2022/04/05 08:58:32;;;;;;;8.30;6.97;;;;;;;7.07;100.00;97603.91;5072096;28;20282;-65
2022/04/05 09:00:59;;;;;;;9.43;7.20;;;;;;;7.13;100.00;97592.16;5073786;28;20599;-65
2022/04/05 09:03:28;;;;;;;8.47;6.97;;;;;;;7.17;100.00;97598.91;5073908;28;20314;-66
2022/04/05 09:05:55;;;;;;;7.13;6.43;;;;;;;7.23;100.00;97602.81;5071575;28;20261;-64
2022/04/05 09:08:24;;;;;;;7.70;6.50;;;;;;;7.26;100.00;97607.03;5073253;28;20731;-66
2022/04/05 09:10:53;;;;;;;8.73;7.33;;;;;;;7.28;100.00;97607.81;5073409;28;20219;-66
2022/04/05 09:13:22;;;;;;;8.67;6.57;;;;;;;7.32;100.00;97610.13;5073446;28;20234;-66
2022/04/05 09:15:51;;;;;;;8.07;7.10;;;;;;;7.40;100.00;97597.34;5073181;28;20222;-66
2022/04/05 09:18:37;;;;;;;9.33;7.13;;;;;;;7.53;100.00;97600.00;5073595;28;20277;-66
2022/04/05 09:21:05;;;;;;;7.57;6.63;;;;;;;7.61;100.00;97595.94;5069349;28;20225;-66
2022/04/05 09:23:34;;;;;;;7.40;6.43;;;;;;;7.68;100.00;97601.63;5072656;28;20218;-65
2022/04/05 09:26:02;;;;;;;8.93;6.43;;;;;;;7.70;100.00;97600.59;5072870;28;20622;-65
2022/04/05 09:28:31;;;;;;;9.10;6.63;;;;;;;7.73;100.00;97602.16;5073312;28;20605;-65
2022/04/05 09:30:59;;;;;;;7.30;6.40;;;;;;;7.72;100.00;97603.13;5073415;28;20217;-66
2022/04/05 09:33:28;;;;;;;8.53;6.60;;;;;;;7.72;100.00;97600.50;5073078;28;20695;-65
2022/04/05 09:36:13;;;;;;;8.40;6.90;;;;;;;7.69;100.00;97605.94;5073367;28;20218;-65
2022/04/05 09:38:43;;;;;;;8.53;7.07;;;;;;;7.71;100.00;97606.69;5068359;28;20211;-65
2022/04/05 09:41:12;;;;;;;8.53;7.03;;;;;;;7.78;100.00;97602.72;5072953;28;20659;-65
2022/04/05 09:43:49;;;;;;;7.70;6.63;;;;;;;7.81;100.00;97607.75;5073204;28;20586;-65
2022/04/05 09:46:15;;;;;;;10.93;6.77;;;;;;;7.84;100.00;97604.94;5073074;28;20222;-65
2022/04/05 09:48:42;;;;;;;7.07;6.27;;;;;;;7.87;100.00;97612.59;5073059;28;20239;-65
2022/04/05 09:51:10;;;;;;;7.37;6.13;;;;;;;7.94;100.00;97613.88;5071416;28;20219;-66
2022/04/05 09:53:50;;;;;;;7.70;5.97;;;;;;;7.98;100.00;97610.97;5072742;28;20223;-66
2022/04/05 09:56:22;;;;;;;8.10;6.37;;;;;;;8.01;100.00;97613.38;5073027;28;20220;-64
2022/04/05 09:58:51;;;;;;;8.10;6.57;;;;;;;8.00;100.00;97610.84;5072746;28;20289;-66
2022/04/05 10:01:19;;;;;;;7.37;6.20;;;;;;;8.01;100.00;97616.00;5065220;28;20326;-65
2022/04/05 10:03:59;;;;;;;6.03;5.30;;;;;;;8.02;100.00;97611.59;5072656;28;20748;-64
2022/04/05 10:06:26;;;;;;;6.57;5.07;;;;;;;8.03;100.00;97618.53;5072786;28;20218;-64
2022/04/05 10:08:55;;;;;;;6.07;4.83;;;;;;;8.01;100.00;97620.41;5067110;28;20260;-63
2022/04/05 10:11:23;;;;;;;7.43;5.40;;;;;;;8.05;100.00;97621.91;5067513;28;20212;-64
2022/04/05 10:13:50;;;;;;;6.40;5.10;;;;;;;8.11;100.00;97622.34;5065906;28;20212;-64
2022/04/05 10:16:19;;;;;;;5.70;4.90;;;;;;;8.09;100.00;97620.75;5063476;28;20212;-65
2022/04/05 10:18:48;;;;;;;6.53;5.17;;;;;;;8.08;100.00;97617.28;5067222;28;20700;-65
2022/04/05 10:21:16;;;;;;;7.07;4.87;;;;;;;8.14;100.00;97616.03;5067560;28;20219;-64
2022/04/05 10:23:44;;;;;;;5.67;5.00;;;;;;;8.14;100.00;97621.31;5070433;28;20207;-65
2022/04/05 10:26:15;;;;;;;5.13;4.63;;;;;;;8.17;100.00;97611.41;5065291;28;20216;-64
2022/04/05 10:28:45;;;;;;;6.83;4.83;;;;;;;8.19;100.00;97611.28;5067531;28;20240;-64
2022/04/05 10:31:15;;;;;;;5.60;4.17;;;;;;;8.15;100.00;97615.09;5067469;28;20226;-64
2022/04/05 10:33:50;;;;;;;4.50;4.10;;;;;;;8.09;100.00;97612.88;5069155;28;20216;-64
2022/04/05 10:36:22;;;;;;;4.77;4.10;;;;;;;8.09;100.00;97618.13;5066960;28;20223;-64
2022/04/05 10:39:16;;;;;;;5.27;4.40;;;;;;;8.07;100.00;97610.34;5067372;28;20211;-64
2022/04/05 10:42:05;;;;;;;5.27;4.23;;;;;;;8.10;100.00;97611.91;5063554;28;20213;-64
2022/04/05 10:44:33;;;;;;;6.93;4.90;;;;;;;8.05;100.00;97614.00;5062587;28;20214;-64
2022/04/05 10:47:04;;;;;;;5.20;4.37;;;;;;;8.04;100.00;97601.81;5067170;28;20699;-64
2022/04/05 10:49:35;;;;;;;5.00;4.17;;;;;;;8.06;100.00;97618.31;5063653;28;20330;-64
2022/04/05 10:52:07;;;;;;;5.03;4.13;;;;;;;8.06;100.00;97608.66;5064474;28;20211;-65
2022/04/05 10:54:40;;;;;;;4.90;4.40;;;;;;;8.10;100.00;97604.03;5067452;28;20223;-65
2022/04/05 10:57:30;;;;;;;4.70;4.13;;;;;;;8.11;100.00;97611.81;5064916;28;20246;-66
2022/04/05 11:00:08;;;;;;;4.67;4.00;;;;;;;8.13;100.00;97599.38;5064924;28;20226;-65
2022/04/05 11:02:40;;;;;;;4.63;4.23;;;;;;;8.12;100.00;97604.75;5067377;28;20225;-65
2022/04/05 11:05:37;;;;;;;4.07;3.67;;;;;;;8.16;100.00;97601.84;5066376;28;20230;-65
2022/04/05 11:08:20;;;;;;;4.77;3.60;;;;;;;8.19;100.00;97598.13;5075523;28;20240;-64
2022/04/05 11:10:54;;;;;;;5.60;3.90;;;;;;;8.20;100.00;97605.94;5071695;28;20254;-65
2022/04/05 11:13:31;;;;;;;5.20;3.97;;;;;;;8.28;100.00;97603.66;5075630;28;20702;-65
2022/04/05 11:16:00;;;;;;;4.30;3.90;;;;;;;8.38;100.00;97599.44;5075603;28;20245;-66
2022/04/05 11:18:28;;;;;;;4.47;3.90;;;;;;;8.48;100.00;97595.22;5076035;28;20215;-66
2022/04/05 11:20:57;;;;;;;4.40;3.93;;;;;;;8.48;100.00;97591.75;5075955;28;20212;-66
2022/04/05 11:23:41;;;;;;;4.20;3.70;;;;;;;8.51;100.00;97594.16;5075720;28;20207;-65
2022/04/05 11:26:33;;;;;;;4.50;3.87;;;;;;;8.58;100.00;97595.44;5075553;28;20214;-67
2022/04/05 11:29:01;;;;;;;4.87;3.63;;;;;;;8.74;100.00;97594.25;5072117;28;20664;-65
2022/04/05 11:31:35;;;;;;;4.70;4.13;;;;;;;8.87;100.00;97591.59;5075585;28;20298;-65
2022/04/05 11:34:03;;;;;;;4.70;4.00;;;;;;;8.94;100.00;97592.84;5075661;28;20211;-66
2022/04/05 11:36:29;;;;;;;4.20;3.80;;;;;;;9.02;100.00;97590.50;5073734;28;20217;-65